createdAt,value
2023-05-24T00:01:23.731Z,95820.63
2023-05-24T00:03:53.363Z,95815.50
2023-05-24T00:06:20.995Z,95818.81
2023-05-24T00:08:47.567Z,95812.25
2023-05-24T00:11:15.096Z,95809.38
2023-05-24T00:13:42.589Z,95812.38
2023-05-24T00:16:09.721Z,95816.13
2023-05-24T00:18:37.186Z,95817.75
2023-05-24T00:21:04.602Z,95814.19
2023-05-24T00:23:31.644Z,95814.94
2023-05-24T00:25:58.657Z,95821.22
2023-05-24T00:28:26.089Z,95818.41
2023-05-24T00:30:53.556Z,95815.09
2023-05-24T00:33:20.632Z,95817.63
2023-05-24T00:35:47.591Z,95818.97
2023-05-24T00:38:15.091Z,95811.94
2023-05-24T00:40:41.814Z,95824.06
2023-05-24T00:43:11.704Z,95808.50
2023-05-24T00:45:38.607Z,95814.31
2023-05-24T00:48:08.193Z,95814.78
2023-05-24T00:50:34.938Z,95799.47
2023-05-24T00:53:01.596Z,95806.69
2023-05-24T00:55:29.011Z,95801.00
2023-05-24T00:57:56.444Z,95799.38
2023-05-24T01:00:23.617Z,95804.50
2023-05-24T01:02:51.279Z,95804.75
2023-05-24T01:05:18.960Z,95806.09
2023-05-24T01:07:49.692Z,95813.88
2023-05-24T01:10:17.131Z,95812.84
2023-05-24T01:12:44.710Z,95820.91
2023-05-24T01:15:11.564Z,95812.28
2023-05-24T01:17:39.095Z,95815.22
2023-05-24T01:20:06.753Z,95814.47
2023-05-24T01:22:33.449Z,95822.13
2023-05-24T01:25:00.526Z,95813.13
2023-05-24T01:27:27.465Z,95815.97
2023-05-24T01:29:54.933Z,95815.44
2023-05-24T01:32:22.594Z,95819.28
2023-05-24T01:34:49.554Z,95814.94
2023-05-24T01:37:19.240Z,95808.78
2023-05-24T01:39:46.777Z,95813.88
2023-05-24T01:42:13.568Z,95806.41
2023-05-24T01:44:41.081Z,95816.47
2023-05-24T01:47:09.620Z,95816.09
2023-05-24T01:49:52.446Z,95820.31
2023-05-24T01:52:19.499Z,95829.00
2023-05-24T01:57:38.619Z,95828.56
2023-05-24T02:00:11.231Z,95831.38
2023-05-24T02:05:27.536Z,95827.78
2023-05-24T02:07:57.363Z,95827.47
2023-05-24T02:18:47.529Z,95828.09
2023-05-24T02:27:07.409Z,95823.91
2023-05-24T02:29:36.760Z,95828.13
2023-05-24T02:32:04.466Z,95820.91
2023-05-24T02:40:14.153Z,95818.59
2023-05-24T02:42:41.291Z,95810.13
2023-05-24T02:45:11.149Z,95820.03
2023-05-24T02:47:40.785Z,95822.44
2023-05-24T02:50:08.355Z,95822.53
2023-05-24T02:52:37.728Z,95824.66
2023-05-24T02:55:07.936Z,95821.88
2023-05-24T02:57:35.214Z,95816.91
2023-05-24T03:00:04.623Z,95812.84
2023-05-24T03:02:34.529Z,95817.91
2023-05-24T03:05:02.334Z,95817.03
2023-05-24T03:07:32.791Z,95827.81
2023-05-24T03:10:02.445Z,95822.72
2023-05-24T03:12:32.045Z,95823.91
2023-05-24T03:14:59.130Z,95830.34
2023-05-24T03:17:28.672Z,95833.47
2023-05-24T03:19:56.212Z,95834.09
2023-05-24T03:22:26.108Z,95837.84
2023-05-24T03:24:56.322Z,95831.25
2023-05-24T03:27:23.139Z,95828.81
2023-05-24T03:29:52.155Z,95828.69
2023-05-24T03:35:05.558Z,95830.72
2023-05-24T03:37:33.077Z,95836.97
2023-05-24T03:40:00.299Z,95829.44
2023-05-24T03:42:31.322Z,95836.66
2023-05-24T03:45:00.680Z,95834.38
2023-05-24T03:47:27.290Z,95831.38
2023-05-24T03:49:54.059Z,95837.38
2023-05-24T03:52:23.534Z,95847.75
2023-05-24T03:54:51.121Z,95837.66
2023-05-24T03:57:20.564Z,95840.81
2023-05-24T03:59:49.860Z,95845.47
2023-05-24T04:02:16.459Z,95850.19
2023-05-24T04:04:43.962Z,95846.38
2023-05-24T04:07:13.131Z,95843.19
2023-05-24T04:09:39.894Z,95838.38
2023-05-24T04:12:06.892Z,95845.72
2023-05-24T04:14:36.187Z,95841.34
2023-05-24T04:17:03.729Z,95845.94
2023-05-24T04:19:31.004Z,95840.59
2023-05-24T04:21:57.906Z,95850.00
2023-05-24T04:24:25.370Z,95852.09
2023-05-24T04:26:51.974Z,95856.53
2023-05-24T04:29:18.556Z,95851.72
2023-05-24T04:31:46.041Z,95860.28
2023-05-24T04:34:12.931Z,95851.41
2023-05-24T04:36:42.401Z,95847.28
2023-05-24T04:39:12.004Z,95848.59
2023-05-24T04:41:38.662Z,95844.84
2023-05-24T04:44:06.106Z,95836.56
2023-05-24T04:46:35.292Z,95834.00
2023-05-24T04:49:01.999Z,95835.06
2023-05-24T04:51:29.523Z,95833.22
2023-05-24T04:53:57.019Z,95836.38
2023-05-24T04:56:23.765Z,95837.69
2023-05-24T04:58:51.213Z,95843.50
2023-05-24T05:01:18.792Z,95840.50
2023-05-24T05:03:48.573Z,95846.09
2023-05-24T05:06:16.043Z,95843.69
2023-05-24T05:08:42.724Z,95844.31
2023-05-24T05:11:09.725Z,95851.16
2023-05-24T05:13:37.196Z,95842.34
2023-05-24T05:16:03.825Z,95853.22
2023-05-24T05:18:30.754Z,95854.66
2023-05-24T05:20:58.268Z,95848.97
2023-05-24T05:23:25.762Z,95852.72
2023-05-24T05:25:52.752Z,95856.44
2023-05-24T05:28:20.261Z,95854.47
2023-05-24T05:30:47.736Z,95857.72
2023-05-24T05:33:14.717Z,95861.03
2023-05-24T05:35:41.611Z,95867.56
2023-05-24T05:38:10.897Z,95856.91
2023-05-24T05:40:37.616Z,95858.72
2023-05-24T05:43:05.057Z,95859.97
2023-05-24T05:45:31.604Z,95861.09
2023-05-24T05:48:00.942Z,95858.50
2023-05-24T05:50:28.384Z,95864.03
2023-05-24T05:52:55.577Z,95861.03
2023-05-24T05:55:23.082Z,95863.78
2023-05-24T05:57:50.547Z,95867.75
2023-05-24T06:00:17.551Z,95856.50
2023-05-24T06:02:45.145Z,95861.56
2023-05-24T06:05:14.090Z,95865.38
2023-05-24T06:07:45.411Z,95858.00
2023-05-24T06:10:12.844Z,95862.59
2023-05-24T06:12:39.529Z,95864.13
2023-05-24T06:15:06.961Z,95858.59
2023-05-24T06:17:33.640Z,95860.41
2023-05-24T06:20:01.346Z,95858.28
2023-05-24T06:22:28.486Z,95862.78
2023-05-24T06:24:57.663Z,95859.13
2023-05-24T06:27:26.907Z,95858.50
2023-05-24T06:29:53.436Z,95857.41
2023-05-24T06:32:22.753Z,95851.00
2023-05-24T06:34:52.136Z,95859.91
2023-05-24T06:37:19.496Z,95861.19
2023-05-24T06:39:46.941Z,95861.66
2023-05-24T06:42:16.254Z,95858.06
2023-05-24T06:44:42.837Z,95870.31
2023-05-24T06:47:09.386Z,95863.03
2023-05-24T06:49:36.484Z,95864.63
2023-05-24T06:52:05.940Z,95874.00
2023-05-24T06:54:32.545Z,95873.09
2023-05-24T06:57:00.241Z,95876.44
2023-05-24T06:59:27.352Z,95875.78
2023-05-24T07:01:56.521Z,95868.25
2023-05-24T07:04:23.235Z,95872.13
2023-05-24T07:06:52.631Z,95864.38
2023-05-24T07:09:20.046Z,95869.75
2023-05-24T07:11:47.519Z,95866.22
2023-05-24T07:14:15.038Z,95869.47
2023-05-24T07:16:41.688Z,95867.41
2023-05-24T07:19:08.423Z,95867.66
2023-05-24T07:21:37.693Z,95870.22
2023-05-24T07:24:04.394Z,95868.28
2023-05-24T07:26:30.909Z,95875.81
2023-05-24T07:29:00.074Z,95878.69
2023-05-24T07:31:29.470Z,95870.72
2023-05-24T07:33:59.740Z,95872.34
2023-05-24T07:36:28.961Z,95873.53
2023-05-24T07:38:56.345Z,95876.31
2023-05-24T07:41:23.846Z,95876.22
2023-05-24T07:43:51.238Z,95870.84
2023-05-24T07:46:18.306Z,95885.41
2023-05-24T07:48:45.890Z,95867.50
2023-05-24T07:51:13.320Z,95875.25
2023-05-24T07:53:39.847Z,95876.16
2023-05-24T07:56:06.440Z,95867.97
2023-05-24T07:58:33.266Z,95869.91
2023-05-24T08:01:02.679Z,95863.56
2023-05-24T08:03:29.344Z,95875.81
2023-05-24T08:05:56.180Z,95876.88
2023-05-24T08:08:28.435Z,95874.31
2023-05-24T08:10:55.177Z,95880.09
2023-05-24T08:13:24.542Z,95875.38
2023-05-24T08:15:57.064Z,95885.97
2023-05-24T08:18:24.136Z,95882.66
2023-05-24T08:20:53.419Z,95880.59
2023-05-24T08:23:20.137Z,95887.91
2023-05-24T08:25:46.715Z,95886.66
2023-05-24T08:28:13.268Z,95895.00
2023-05-24T08:30:40.170Z,95892.31
2023-05-24T08:33:09.888Z,95894.75
2023-05-24T08:35:37.659Z,95896.78
2023-05-24T08:38:05.160Z,95898.97
2023-05-24T08:40:34.344Z,95895.19
2023-05-24T08:43:00.879Z,95892.28
2023-05-24T08:45:32.936Z,95894.00
2023-05-24T08:48:02.411Z,95901.81
2023-05-24T08:50:31.865Z,95900.66
2023-05-24T08:52:58.414Z,95897.34
2023-05-24T08:55:25.014Z,95904.72
2023-05-24T08:57:51.583Z,95904.66
2023-05-24T09:00:18.131Z,95908.34
2023-05-24T09:02:44.637Z,95906.84
2023-05-24T09:05:14.242Z,95910.94
2023-05-24T09:07:40.802Z,95912.72
2023-05-24T09:10:07.365Z,95908.47
2023-05-24T09:12:38.162Z,95918.63
2023-05-24T09:15:06.090Z,95914.47
2023-05-24T09:17:33.981Z,95920.34
2023-05-24T09:20:00.581Z,95919.63
2023-05-24T09:22:29.909Z,95920.38
2023-05-24T09:24:59.387Z,95927.69
2023-05-24T09:27:25.841Z,95920.66
2023-05-24T09:29:52.582Z,95919.72
2023-05-24T09:32:19.122Z,95916.03
2023-05-24T09:34:45.639Z,95910.03
2023-05-24T09:37:15.057Z,95918.19
2023-05-24T09:39:41.530Z,95916.44
2023-05-24T09:42:08.916Z,95918.69
2023-05-24T09:44:35.362Z,95925.00
2023-05-24T09:47:02.031Z,95919.16
2023-05-24T09:49:31.797Z,95924.59
2023-05-24T09:51:58.286Z,95914.63
2023-05-24T09:54:24.891Z,95934.00
2023-05-24T09:56:51.453Z,95921.41
2023-05-24T09:59:18.060Z,95920.13
2023-05-24T10:01:44.584Z,95921.13
2023-05-24T10:04:11.351Z,95916.63
2023-05-24T10:06:39.050Z,95921.78
2023-05-24T10:09:05.709Z,95922.50
2023-05-24T10:11:32.190Z,95925.84
2023-05-24T10:13:58.623Z,95924.56
2023-05-24T10:16:25.136Z,95920.13
2023-05-24T10:18:54.581Z,95917.59
2023-05-24T10:21:21.389Z,95916.28
2023-05-24T10:23:50.874Z,95908.78
2023-05-24T10:26:17.402Z,95909.59
2023-05-24T10:28:43.881Z,95909.38
2023-05-24T10:31:10.456Z,95911.06
2023-05-24T10:33:36.956Z,95915.38
2023-05-24T10:36:03.494Z,95922.75
2023-05-24T10:38:30.153Z,95917.84
2023-05-24T10:40:56.596Z,95923.44
2023-05-24T10:43:23.065Z,95921.16
2023-05-24T10:45:50.770Z,95920.56
2023-05-24T10:48:17.471Z,95912.19
2023-05-24T10:50:44.473Z,95918.19
2023-05-24T10:53:11.741Z,95924.38
2023-05-24T10:55:38.333Z,95923.81
2023-05-24T10:58:07.617Z,95917.13
2023-05-24T11:00:35.628Z,95914.13
2023-05-24T11:03:02.636Z,95917.78
2023-05-24T11:05:35.226Z,95914.09
2023-05-24T11:08:01.855Z,95912.09
2023-05-24T11:10:28.510Z,95906.09
2023-05-24T11:12:54.996Z,95913.94
2023-05-24T11:15:24.236Z,95907.72
2023-05-24T11:17:50.859Z,95911.16
2023-05-24T11:20:20.255Z,95901.25
2023-05-24T11:22:46.964Z,95902.53
2023-05-24T11:25:16.234Z,95901.78
2023-05-24T11:27:42.750Z,95901.00
2023-05-24T11:30:09.235Z,95907.44
2023-05-24T11:32:35.724Z,95899.53
2023-05-24T11:35:02.313Z,95899.91
2023-05-24T11:37:42.572Z,95899.16
2023-05-24T11:40:12.407Z,95891.56
2023-05-24T11:42:39.734Z,95879.97
2023-05-24T11:45:09.146Z,95879.75
2023-05-24T11:47:35.773Z,95864.16
2023-05-24T11:50:02.344Z,95866.00
2023-05-24T11:52:29.765Z,95875.13
2023-05-24T11:54:56.266Z,95862.88
2023-05-24T11:57:23.835Z,95875.66
2023-05-24T11:59:50.340Z,95876.72
2023-05-24T12:02:16.893Z,95871.91
2023-05-24T12:04:43.688Z,95867.13
2023-05-24T12:07:13.193Z,95862.19
2023-05-24T12:09:39.823Z,95852.06
2023-05-24T12:12:06.448Z,95854.84
2023-05-24T12:14:33.218Z,95855.41
2023-05-24T12:17:02.717Z,95852.94
2023-05-24T12:19:33.233Z,95853.66
2023-05-24T12:22:00.451Z,95844.09
2023-05-24T12:24:26.944Z,95842.16
2023-05-24T12:26:53.486Z,95840.66
2023-05-24T12:29:19.920Z,95849.91
2023-05-24T12:31:46.474Z,95852.59
2023-05-24T12:34:13.170Z,95847.75
2023-05-24T12:36:39.632Z,95850.22
2023-05-24T12:39:06.074Z,95848.63
2023-05-24T12:41:32.647Z,95854.75
2023-05-24T12:43:59.205Z,95851.94
2023-05-24T12:46:25.702Z,95848.84
2023-05-24T12:48:52.266Z,95848.16
2023-05-24T12:51:18.742Z,95858.38
2023-05-24T12:53:45.335Z,95869.34
2023-05-24T12:56:11.797Z,95851.06
2023-05-24T12:58:38.295Z,95861.06
2023-05-24T13:01:04.828Z,95852.69
2023-05-24T13:03:31.643Z,95853.97
2023-05-24T13:05:58.250Z,95853.53
2023-05-24T13:08:24.921Z,95853.66
2023-05-24T13:10:51.400Z,95850.75
2023-05-24T13:13:20.998Z,95854.81
2023-05-24T13:15:48.415Z,95847.44
2023-05-24T13:18:19.804Z,95845.94
2023-05-24T13:20:46.681Z,95853.78
2023-05-24T13:23:13.460Z,95849.06
2023-05-24T13:25:40.655Z,95840.34
2023-05-24T13:28:07.142Z,95840.34
2023-05-24T13:30:33.631Z,95839.81
2023-05-24T13:33:00.292Z,95841.22
2023-05-24T13:35:26.888Z,95849.69
2023-05-24T13:37:53.361Z,95846.41
2023-05-24T13:40:20.333Z,95844.31
2023-05-24T13:42:47.140Z,95852.81
2023-05-24T13:45:13.625Z,95860.09
2023-05-24T13:47:41.252Z,95849.91
2023-05-24T13:50:10.947Z,95855.09
2023-05-24T13:52:38.431Z,95854.06
2023-05-24T13:55:05.848Z,95854.00
2023-05-24T13:57:49.633Z,95853.75
2023-05-24T14:00:17.324Z,95850.53
2023-05-24T14:02:44.147Z,95853.97
2023-05-24T14:05:25.949Z,95857.84
2023-05-24T14:07:54.489Z,95844.31
2023-05-24T14:10:21.770Z,95843.25
2023-05-24T14:12:59.528Z,95837.56
2023-05-24T14:15:31.592Z,95846.69
2023-05-24T14:17:58.130Z,95843.34
2023-05-24T14:20:25.104Z,95844.09
2023-05-24T14:22:52.257Z,95847.75
2023-05-24T14:25:19.337Z,95847.84
2023-05-24T14:27:46.790Z,95828.13
2023-05-24T14:30:13.350Z,95831.44
2023-05-24T14:32:40.824Z,95827.78
2023-05-24T14:35:08.292Z,95827.13
2023-05-24T14:37:35.349Z,95821.22
2023-05-24T14:40:02.878Z,95825.09
2023-05-24T14:42:30.418Z,95826.28
2023-05-24T14:44:56.990Z,95819.72
2023-05-24T14:47:24.436Z,95820.47
2023-05-24T14:49:51.856Z,95824.91
2023-05-24T14:52:19.201Z,95815.41
2023-05-24T14:54:46.159Z,95818.22
2023-05-24T14:57:13.589Z,95816.19
2023-05-24T14:59:40.127Z,95810.41
2023-05-24T15:02:06.822Z,95816.84
2023-05-24T15:04:34.311Z,95800.63
2023-05-24T15:07:01.777Z,95816.41
2023-05-24T15:09:30.996Z,95803.38
2023-05-24T15:11:57.514Z,95811.66
2023-05-24T15:14:24.061Z,95816.81
2023-05-24T15:16:53.527Z,95815.53
2023-05-24T15:19:20.290Z,95802.44
2023-05-24T15:21:47.130Z,95811.34
2023-05-24T15:24:14.629Z,95811.56
2023-05-24T15:26:42.074Z,95801.91
2023-05-24T15:29:08.769Z,95805.13
2023-05-24T15:31:36.110Z,95801.16
2023-05-24T15:34:02.627Z,95799.97
2023-05-24T15:36:29.072Z,95803.59
2023-05-24T15:38:55.560Z,95812.97
2023-05-24T15:41:22.194Z,95816.69
2023-05-24T15:43:48.992Z,95798.47
2023-05-24T15:46:15.730Z,95816.84
2023-05-24T15:48:43.007Z,95797.69
2023-05-24T15:53:39.028Z,95810.81
2023-05-24T15:56:05.835Z,95812.97
2023-05-24T15:58:32.337Z,95804.34
2023-05-24T16:00:58.773Z,95806.41
2023-05-24T16:03:25.432Z,95805.97
2023-05-24T16:05:51.932Z,95797.84
2023-05-24T16:08:19.139Z,95800.50
2023-05-24T16:10:45.592Z,95803.50
2023-05-24T16:13:12.041Z,95804.50
2023-05-24T16:15:38.936Z,95793.22
2023-05-24T16:18:05.500Z,95794.63
2023-05-24T16:20:32.040Z,95801.28
2023-05-24T16:22:59.502Z,95793.63
2023-05-24T16:25:26.966Z,95798.25
2023-05-24T16:27:56.138Z,95806.28
2023-05-24T16:30:22.610Z,95794.59
2023-05-24T16:32:49.108Z,95796.22
2023-05-24T16:35:15.585Z,95784.94
2023-05-24T16:37:42.074Z,95804.16
2023-05-24T16:40:08.602Z,95796.63
2023-05-24T16:42:35.129Z,95789.13
2023-05-24T16:45:01.604Z,95795.69
2023-05-24T16:47:29.799Z,95793.00
2023-05-24T16:49:56.754Z,95794.50
2023-05-24T16:52:23.845Z,95777.19
2023-05-24T16:54:53.039Z,95777.41
2023-05-24T16:57:19.593Z,95770.91
2023-05-24T16:59:46.368Z,95773.16
2023-05-24T17:02:13.816Z,95776.97
2023-05-24T17:04:43.201Z,95768.69
2023-05-24T17:07:09.714Z,95766.88
2023-05-24T17:09:36.193Z,95776.81
2023-05-24T17:12:02.804Z,95766.69
2023-05-24T17:14:29.285Z,95777.22
2023-05-24T17:16:55.876Z,95778.94
2023-05-24T17:19:25.404Z,95778.09
2023-05-24T17:21:51.987Z,95774.00
2023-05-24T17:24:18.512Z,95777.44
2023-05-24T17:26:45.076Z,95781.38
2023-05-24T17:29:11.641Z,95785.50
2023-05-24T17:31:38.217Z,95798.06
2023-05-24T17:34:15.987Z,95793.56
2023-05-24T17:36:42.481Z,95792.06
2023-05-24T17:39:08.932Z,95793.69
2023-05-24T17:41:36.366Z,95788.38
2023-05-24T17:44:03.723Z,95797.66
2023-05-24T17:46:30.221Z,95796.56
2023-05-24T17:48:56.819Z,95808.69
2023-05-24T17:51:23.713Z,95794.44
2023-05-24T17:53:50.178Z,95799.47
2023-05-24T17:56:16.768Z,95810.94
2023-05-24T17:58:47.592Z,95811.84
2023-05-24T18:01:15.297Z,95806.31
2023-05-24T18:03:42.742Z,95814.19
2023-05-24T18:06:10.226Z,95816.44
2023-05-24T18:08:37.714Z,95820.41
2023-05-24T18:11:04.674Z,95822.84
2023-05-24T18:13:32.114Z,95827.00
2023-05-24T18:15:58.688Z,95831.78
2023-05-24T18:18:25.674Z,95823.34
2023-05-24T18:20:53.125Z,95820.25
2023-05-24T18:23:22.298Z,95820.66
2023-05-24T18:25:50.634Z,95823.59
2023-05-24T18:28:28.133Z,95820.22
2023-05-24T18:30:54.765Z,95827.72
2023-05-24T18:33:21.463Z,95821.84
2023-05-24T18:35:48.992Z,95817.22
2023-05-24T18:38:16.406Z,95813.84
2023-05-24T18:40:43.003Z,95818.78
2023-05-24T18:43:09.543Z,95813.00
2023-05-24T18:45:36.015Z,95813.69
2023-05-24T18:48:02.705Z,95820.59
2023-05-24T18:50:31.921Z,95825.97
2023-05-24T18:55:38.747Z,95813.00
2023-05-24T18:58:05.559Z,95816.38
2023-05-24T19:00:32.660Z,95818.53
2023-05-24T19:02:59.582Z,95821.75
2023-05-24T19:05:27.140Z,95820.69
2023-05-24T19:07:53.598Z,95814.00
2023-05-24T19:10:20.157Z,95817.78
2023-05-24T19:12:46.756Z,95820.31
2023-05-24T19:15:13.215Z,95826.72
2023-05-24T19:20:20.032Z,95828.69
2023-05-24T19:22:49.260Z,95819.03
2023-05-24T19:25:15.730Z,95822.50
2023-05-24T19:27:57.941Z,95819.81
2023-05-24T19:30:26.225Z,95818.38
2023-05-24T19:32:52.826Z,95816.88
2023-05-24T19:35:19.670Z,95823.31
2023-05-24T19:37:46.227Z,95816.94
2023-05-24T19:40:12.682Z,95823.50
2023-05-24T19:42:39.125Z,95821.25
2023-05-24T19:45:08.549Z,95823.38
2023-05-24T19:47:35.039Z,95827.13
2023-05-24T19:50:01.497Z,95826.81
2023-05-24T19:52:28.136Z,95833.56
2023-05-24T19:55:07.217Z,95833.53
2023-05-24T19:57:33.645Z,95826.63
2023-05-24T20:00:00.103Z,95828.94
2023-05-24T20:02:26.664Z,95842.66
2023-05-24T20:04:53.254Z,95839.06
2023-05-24T20:07:19.770Z,95820.13
2023-05-24T20:09:46.213Z,95844.03
2023-05-24T20:12:12.950Z,95826.69
2023-05-24T20:14:39.432Z,95833.56
2023-05-24T20:17:05.890Z,95833.75
2023-05-24T20:19:32.438Z,95842.13
2023-05-24T20:21:59.066Z,95839.00
2023-05-24T20:24:25.633Z,95829.72
2023-05-24T20:26:52.111Z,95829.88
2023-05-24T20:29:19.528Z,95847.84
2023-05-24T20:31:46.425Z,95827.63
2023-05-24T20:34:13.375Z,95831.50
2023-05-24T20:36:43.383Z,95840.06
2023-05-24T20:39:11.276Z,95835.16
2023-05-24T20:41:38.380Z,95830.50
2023-05-24T20:44:05.961Z,95838.56
2023-05-24T20:46:33.704Z,95834.38
2023-05-24T20:49:00.484Z,95830.69
2023-05-24T20:51:27.987Z,95827.06
2023-05-24T20:53:54.494Z,95821.19
2023-05-24T20:56:20.998Z,95830.19
2023-05-24T20:58:50.094Z,95823.91
2023-05-24T21:01:19.517Z,95831.38
2023-05-24T21:03:46.086Z,95828.69
2023-05-24T21:06:12.629Z,95824.38
2023-05-24T21:08:39.079Z,95832.16
2023-05-24T21:11:05.544Z,95814.53
2023-05-24T21:13:32.219Z,95822.44
2023-05-24T21:18:39.242Z,95820.03
2023-05-24T21:21:06.666Z,95811.22
2023-05-24T21:23:33.142Z,95814.34
2023-05-24T21:26:00.287Z,95816.59
2023-05-24T21:28:27.750Z,95815.84
2023-05-24T21:30:55.208Z,95819.09
2023-05-24T21:33:21.689Z,95813.22
2023-05-24T21:35:48.094Z,95820.41
2023-05-24T21:38:14.656Z,95817.66
2023-05-24T21:40:41.139Z,95812.84
2023-05-24T21:43:10.393Z,95807.53
2023-05-24T21:45:37.227Z,95817.72
2023-05-24T21:48:03.914Z,95825.31
2023-05-24T21:50:30.430Z,95808.25
2023-05-24T21:52:57.023Z,95805.72
2023-05-24T21:55:24.188Z,95811.16
2023-05-24T21:57:50.675Z,95814.69
2023-05-24T22:00:17.216Z,95821.91
2023-05-24T22:02:43.762Z,95808.13
2023-05-24T22:05:10.334Z,95796.88
2023-05-24T22:07:36.769Z,95797.63
2023-05-24T22:10:03.361Z,95795.81
2023-05-24T22:12:29.812Z,95799.69
2023-05-24T22:14:59.322Z,95793.13
2023-05-24T22:17:25.871Z,95791.38
2023-05-24T22:22:32.584Z,95789.13
2023-05-24T22:24:59.170Z,95790.56
2023-05-24T22:27:25.705Z,95798.03
2023-05-24T22:29:52.246Z,95788.44
2023-05-24T22:32:18.729Z,95798.22
2023-05-24T22:34:45.339Z,95797.75
2023-05-24T22:37:11.790Z,95783.44
2023-05-24T22:39:38.207Z,95803.91
2023-05-24T22:42:17.971Z,95778.84
2023-05-24T22:44:44.584Z,95785.66
2023-05-24T22:47:11.118Z,95782.38
2023-05-24T22:49:37.714Z,95781.19
2023-05-24T22:52:04.156Z,95781.50
2023-05-24T22:54:30.746Z,95794.94
2023-05-24T22:56:57.309Z,95792.09
2023-05-24T22:59:23.790Z,95788.94
2023-05-24T23:01:50.353Z,95784.59
2023-05-24T23:04:20.964Z,95794.00
2023-05-24T23:06:47.936Z,95774.59
2023-05-24T23:09:14.561Z,95787.63
2023-05-24T23:11:41.039Z,95775.81
2023-05-24T23:14:07.483Z,95774.75
2023-05-24T23:16:36.938Z,95789.69
2023-05-24T23:19:06.090Z,95778.16
2023-05-24T23:21:32.995Z,95788.69
2023-05-24T23:23:59.699Z,95777.59
2023-05-24T23:26:26.143Z,95782.38
2023-05-24T23:28:52.681Z,95784.31
2023-05-24T23:31:19.224Z,95785.81
2023-05-24T23:33:58.573Z,95790.84
2023-05-24T23:36:25.166Z,95787.63
2023-05-24T23:38:52.597Z,95781.13
2023-05-24T23:41:19.091Z,95787.16
2023-05-24T23:43:45.559Z,95772.47
2023-05-24T23:46:12.129Z,95784.31
2023-05-24T23:48:38.600Z,95779.06
2023-05-24T23:51:05.057Z,95769.03
2023-05-24T23:53:31.589Z,95775.81
2023-05-24T23:55:58.197Z,95763.53
2023-05-24T23:58:24.982Z,95770.66
